Time;durP1;ratioP1;P1;durP2;ratioP2;P2;SDS_P1;SDS_P2;PMS_P1;PMS_P2;Temp;Humidity;BMP_temperature;BMP_pressure;BME280_temperature;BME280_humidity;BME280_pressure;Samples;Min_cycle;Max_cycle;Signal;HPM_P1;HPM_P2
2022/08/24 00:01:30;;;;;;;;;;;;;;;21.11;52.57227;101811.9;;;;-75
2022/08/24 00:06:31;;;;;;;;;;;;;;;21.1;52.5127;101808.2;;;;-76
2022/08/24 00:11:30;;;;;;;;;;;;;;;21.09;52.69434;101802;;;;-75
2022/08/24 00:12:49;;;;;;;3.4;2.2;;;;;;;;;;;;;-76
2022/08/24 00:16:30;;;;;;;;;;;;;;;21.06;52.88574;101790.4;;;;-74
2022/08/24 00:21:31;;;;;;;;;;;;;;;21.06;53.12402;101791.9;;;;-73
2022/08/24 00:26:30;;;;;;;;;;;;;;;21.06;53.33105;101800.9;;;;-75
2022/08/24 00:31:30;;;;;;;;;;;;;;;21.04;53.05469;101801.2;;;;-76
2022/08/24 00:36:30;;;;;;;;;;;;;;;21.04;52.95117;101805.3;;;;-75
2022/08/24 00:41:31;;;;;;;;;;;;;;;21.05;53.30566;101806.2;;;;-74
2022/08/24 00:42:52;;;;;;;3.4;1.9;;;;;;;;;;;;;-75
2022/08/24 00:46:33;;;;;;;;;;;;;;;21.05;53.7168;101800.1;;;;-76
2022/08/24 00:51:33;;;;;;;;;;;;;;;21.08;53.21777;101796.8;;;;-77
2022/08/24 00:56:33;;;;;;;;;;;;;;;21.08;53.28613;101799.8;;;;-75
2022/08/24 01:01:31;;;;;;;;;;;;;;;21.07;52.71484;101796.3;;;;-76
2022/08/24 01:06:31;;;;;;;;;;;;;;;21.03;52.62988;101796.5;;;;-75
2022/08/24 01:11:32;;;;;;;;;;;;;;;20.97;52.56641;101795;;;;-75
2022/08/24 01:12:57;;;;;;;2.7;1.7;;;;;;;;;;;;;-75
2022/08/24 01:21:33;;;;;;;;;;;;;;;20.83;52.79004;101789.8;;;;-76
2022/08/24 01:26:34;;;;;;;;;;;;;;;20.77;52.72559;101790;;;;-75
2022/08/24 01:31:30;;;;;;;;;;;;;;;20.73;52.85645;101785.3;;;;-76
2022/08/24 01:36:33;;;;;;;;;;;;;;;20.67;52.93066;101788.2;;;;-75
2022/08/24 01:41:30;;;;;;;;;;;;;;;20.63;52.65137;101796.8;;;;-77
2022/08/24 01:42:58;;;;;;;2.4;1.6;;;;;;;;;;;;;-75
2022/08/24 01:46:30;;;;;;;;;;;;;;;20.59;52.63477;101807;;;;-76
2022/08/24 01:51:32;;;;;;;;;;;;;;;20.53;52.83398;101810.5;;;;-74
2022/08/24 01:56:31;;;;;;;;;;;;;;;20.48;52.92969;101805;;;;-75
2022/08/24 02:01:31;;;;;;;;;;;;;;;20.44;53.10742;101804.5;;;;-77
2022/08/24 02:06:31;;;;;;;;;;;;;;;20.38;52.96387;101809.5;;;;-76
2022/08/24 02:11:31;;;;;;;;;;;;;;;20.35;52.7207;101810.4;;;;-76
2022/08/24 02:13:01;;;;;;;3;1.7;;;;;;;;;;;;;-74
2022/08/24 02:16:30;;;;;;;;;;;;;;;20.3;52.79492;101814.8;;;;-74
2022/08/24 02:21:30;;;;;;;;;;;;;;;20.24;53.4502;101810.4;;;;-76
2022/08/24 02:26:30;;;;;;;;;;;;;;;20.2;53.03418;101810.5;;;;-75
2022/08/24 02:31:31;;;;;;;;;;;;;;;20.17;53.05371;101813.1;;;;-74
2022/08/24 02:36:30;;;;;;;;;;;;;;;20.13;53.42383;101810.7;;;;-76
2022/08/24 02:41:31;;;;;;;;;;;;;;;20.1;53.50098;101811.7;;;;-76
2022/08/24 02:43:04;;;;;;;3.7;1.9;;;;;;;;;;;;;-74
2022/08/24 02:46:31;;;;;;;;;;;;;;;20.08;53.55566;101814.6;;;;-74
2022/08/24 02:51:32;;;;;;;;;;;;;;;20.05;53.9502;101811.7;;;;-77
2022/08/24 02:56:31;;;;;;;;;;;;;;;20.05;53.80176;101817.3;;;;-75
2022/08/24 03:01:31;;;;;;;;;;;;;;;20;54.27441;101817.8;;;;-75
2022/08/24 03:06:30;;;;;;;;;;;;;;;20;54.61621;101819.1;;;;-76
2022/08/24 03:11:30;;;;;;;;;;;;;;;19.99;54.14844;101816.9;;;;-76
2022/08/24 03:13:08;;;;;;;3.1;1.9;;;;;;;;;;;;;-77
2022/08/24 03:16:31;;;;;;;;;;;;;;;19.96;54.48535;101810;;;;-75
2022/08/24 03:21:31;;;;;;;;;;;;;;;19.92;54.59668;101810.1;;;;-76
2022/08/24 03:26:30;;;;;;;;;;;;;;;19.89;55.13867;101808.2;;;;-75
2022/08/24 03:31:30;;;;;;;;;;;;;;;19.88;54.95508;101809.4;;;;-74
2022/08/24 03:36:30;;;;;;;;;;;;;;;19.85;55.31543;101809.1;;;;-75
2022/08/24 03:41:32;;;;;;;;;;;;;;;19.82;55.37012;101815.1;;;;-76
2022/08/24 03:43:44;;;;;;;4.5;2.2;;;;;;;;;;;;;-75
2022/08/24 03:46:31;;;;;;;;;;;;;;;19.81;55.66309;101815.1;;;;-75
2022/08/24 03:51:31;;;;;;;;;;;;;;;19.8;55.99219;101815.4;;;;-75
2022/08/24 03:56:31;;;;;;;;;;;;;;;19.79;55.77539;101824.5;;;;-75
2022/08/24 04:01:30;;;;;;;;;;;;;;;19.8;55.66211;101822.3;;;;-75
2022/08/24 04:06:33;;;;;;;;;;;;;;;19.76;55.7373;101827.7;;;;-74
2022/08/24 04:11:33;;;;;;;;;;;;;;;19.73;55.25488;101833.2;;;;-75
2022/08/24 04:13:16;;;;;;;4.5;2.8;;;;;;;;;;;;;-75
2022/08/24 04:16:31;;;;;;;;;;;;;;;19.71;55.57031;101831;;;;-74
2022/08/24 04:21:33;;;;;;;;;;;;;;;19.7;54.85352;101836.6;;;;-76
2022/08/24 04:26:32;;;;;;;;;;;;;;;19.64;54.8916;101839;;;;-76
2022/08/24 04:31:35;;;;;;;;;;;;;;;19.61;55.10352;101838.3;;;;-76
2022/08/24 04:36:35;;;;;;;;;;;;;;;19.61;55.17188;101836.5;;;;-77
2022/08/24 04:41:30;;;;;;;;;;;;;;;19.56;54.92578;101842.8;;;;-75
2022/08/24 04:43:17;;;;;;;4.9;2.6;;;;;;;;;;;;;-76
2022/08/24 04:46:31;;;;;;;;;;;;;;;19.56;55.05273;101848.8;;;;-75
2022/08/24 04:51:30;;;;;;;;;;;;;;;19.58;54.73535;101856.9;;;;-76
2022/08/24 04:56:33;;;;;;;;;;;;;;;19.58;54.76953;101855.7;;;;-75
2022/08/24 05:01:32;;;;;;;;;;;;;;;19.58;54.93945;101857.1;;;;-76
2022/08/24 05:06:32;;;;;;;;;;;;;;;19.65;54.80078;101859.1;;;;-74
2022/08/24 05:11:33;;;;;;;;;;;;;;;19.7;55.35352;101859.3;;;;-76
2022/08/24 05:13:18;;;;;;;6.6;3.4;;;;;;;;;;;;;-75
2022/08/24 05:16:31;;;;;;;;;;;;;;;19.76;55.27051;101857;;;;-76
2022/08/24 05:21:31;;;;;;;;;;;;;;;19.83;55.2002;101859.5;;;;-75
2022/08/24 05:26:30;;;;;;;;;;;;;;;19.9;55.36719;101858.4;;;;-76
2022/08/24 05:31:33;;;;;;;;;;;;;;;20.01;56.00781;101864;;;;-76
2022/08/24 05:36:31;;;;;;;;;;;;;;;20.09;55.4834;101865;;;;-75
2022/08/24 05:41:30;;;;;;;;;;;;;;;20.18;55.44727;101867.8;;;;-76
2022/08/24 05:43:24;;;;;;;5.8;3.2;;;;;;;;;;;;;-75
2022/08/24 05:46:31;;;;;;;;;;;;;;;20.27;55.3457;101866;;;;-76
2022/08/24 05:51:31;;;;;;;;;;;;;;;20.36;55.79004;101866.3;;;;-76
2022/08/24 05:56:30;;;;;;;;;;;;;;;20.52;55.53516;101865.5;;;;-75
2022/08/24 06:01:31;;;;;;;;;;;;;;;20.92;55.24316;101866.2;;;;-75
2022/08/24 06:06:31;;;;;;;;;;;;;;;21.46;55.16113;101869.7;;;;-75
2022/08/24 06:11:31;;;;;;;;;;;;;;;21.93;54.39551;101863.2;;;;-75
2022/08/24 06:13:23;;;;;;;9.1;4.5;;;;;;;;;;;;;-76
2022/08/24 06:16:33;;;;;;;;;;;;;;;22.29;53.91309;101862.6;;;;-77
2022/08/24 06:21:31;;;;;;;;;;;;;;;22.5;54.16602;101869.4;;;;-75
2022/08/24 06:31:30;;;;;;;;;;;;;;;22.86;54.41797;101872.5;;;;-76
2022/08/24 06:36:34;;;;;;;;;;;;;;;23.05;54.43848;101876.8;;;;-75
2022/08/24 06:41:30;;;;;;;;;;;;;;;23.49;53.75781;101876.8;;;;-74
2022/08/24 06:43:26;;;;;;;7;4.6;;;;;;;;;;;;;-78
2022/08/24 06:46:30;;;;;;;;;;;;;;;24.04;53.62793;101882.7;;;;-76
2022/08/24 06:51:36;;;;;;;;;;;;;;;24.5;53.02832;101875.5;;;;-76
2022/08/24 06:56:30;;;;;;;;;;;;;;;24.93;52.13379;101872.9;;;;-75
2022/08/24 07:01:30;;;;;;;;;;;;;;;25.3;52.62695;101876.7;;;;-75
2022/08/24 07:06:31;;;;;;;;;;;;;;;25.55;52.71289;101876.5;;;;-74
2022/08/24 07:11:33;;;;;;;;;;;;;;;25.6;52.29102;101875.5;;;;-76
2022/08/24 07:13:30;;;;;;;8.1;4.4;;;;;;;;;;;;;-76
2022/08/24 07:16:31;;;;;;;;;;;;;;;25.68;52.32324;101876.4;;;;-76
2022/08/24 07:21:33;;;;;;;;;;;;;;;25.86;51.68652;101877.3;;;;-75
2022/08/24 07:26:31;;;;;;;;;;;;;;;26.17;51.8252;101884.3;;;;-75
2022/08/24 07:31:30;;;;;;;;;;;;;;;26.5;51.52832;101881.7;;;;-75
2022/08/24 07:36:30;;;;;;;;;;;;;;;26.8;51.46973;101887.4;;;;-75
2022/08/24 07:41:30;;;;;;;;;;;;;;;27.19;51.14355;101889.1;;;;-76
2022/08/24 07:43:36;;;;;;;4.4;2.7;;;;;;;;;;;;;-76
2022/08/24 07:46:34;;;;;;;;;;;;;;;27.59;50.29492;101896.7;;;;-77
2022/08/24 07:51:30;;;;;;;;;;;;;;;27.97;49.78027;101901.2;;;;-75
2022/08/24 07:56:31;;;;;;;;;;;;;;;28.28;49.15137;101905.5;;;;-76
2022/08/24 08:01:38;;;;;;;;;;;;;;;28.61;48.67383;101899.3;;;;-76
2022/08/24 08:06:30;;;;;;;;;;;;;;;28.92;48.18457;101902.3;;;;-76
2022/08/24 08:11:30;;;;;;;;;;;;;;;29.26;47.63867;101906.4;;;;-76
2022/08/24 08:13:52;;;;;;;2.6;1.4;;;;;;;;;;;;;-77
2022/08/24 08:16:30;;;;;;;;;;;;;;;29.61;46.8584;101913.3;;;;-77
2022/08/24 08:26:32;;;;;;;;;;;;;;;30.33;45.51758;101922.3;;;;-77
2022/08/24 08:31:30;;;;;;;;;;;;;;;30.68;44.74512;101928.3;;;;-76
2022/08/24 08:36:32;;;;;;;;;;;;;;;30.95;44.08105;101925.2;;;;-75
2022/08/24 08:41:42;;;;;;;;;;;;;;;31.21;43.50781;101924.2;;;;-77
2022/08/24 08:43:47;;;;;;;2.8;0.9;;;;;;;;;;;;;-76
2022/08/24 08:46:41;;;;;;;;;;;;;;;31.53;43.03516;101927.2;;;;-74
2022/08/24 08:51:42;;;;;;;;;;;;;;;31.84;42.6875;101930.4;;;;-75
2022/08/24 08:56:36;;;;;;;;;;;;;;;32.05;42.10938;101933.3;;;;-76
2022/08/24 09:01:34;;;;;;;;;;;;;;;32.26;41.70508;101936.8;;;;-75
2022/08/24 09:06:50;;;;;;;;;;;;;;;32.44;41.49902;101939.4;;;;-76
2022/08/24 09:11:34;;;;;;;;;;;;;;;32.69;41.14453;101940.3;;;;-74
2022/08/24 09:13:58;;;;;;;2.2;0.7;;;;;;;;;;;;;-75
2022/08/24 09:16:42;;;;;;;;;;;;;;;32.99;40.6416;101939.4;;;;-75
2022/08/24 09:22:00;;;;;;;;;;;;;;;33.17;40.26855;101942.1;;;;-75
2022/08/24 09:26:32;;;;;;;;;;;;;;;33.4;40.08887;101936.1;;;;-75
2022/08/24 09:31:44;;;;;;;;;;;;;;;33.7;39.96191;101939.6;;;;-76
2022/08/24 09:36:44;;;;;;;;;;;;;;;33.96;39.37012;101937.2;;;;-76
2022/08/24 09:41:44;;;;;;;;;;;;;;;34.26;39.16016;101943.3;;;;-76
2022/08/24 09:44:17;;;;;;;2.6;0.8;;;;;;;;;;;;;-76
2022/08/24 09:46:44;;;;;;;;;;;;;;;34.52;38.5918;101944.3;;;;-75
2022/08/24 09:51:50;;;;;;;;;;;;;;;34.77;38.39941;101941.3;;;;-76
2022/08/24 09:56:36;;;;;;;;;;;;;;;35.04;37.87793;101941.7;;;;-77
2022/08/24 10:01:36;;;;;;;;;;;;;;;35.31;37.44824;101939.9;;;;-77
2022/08/24 10:06:36;;;;;;;;;;;;;;;35.55;37.34961;101936.6;;;;-75
2022/08/24 10:11:37;;;;;;;;;;;;;;;35.82;37.28906;101926.7;;;;-75
2022/08/24 10:14:08;;;;;;;2.5;0.8;;;;;;;;;;;;;-76
2022/08/24 10:16:39;;;;;;;;;;;;;;;36.18;36.74902;101930.1;;;;-75
2022/08/24 10:21:42;;;;;;;;;;;;;;;36.4;36.76563;101927.8;;;;-75
2022/08/24 10:26:38;;;;;;;;;;;;;;;36.64;36.66602;101923.1;;;;-77
2022/08/24 10:31:47;;;;;;;;;;;;;;;36.91;36.17676;101927;;;;-75
2022/08/24 10:36:45;;;;;;;;;;;;;;;37.14;36.3252;101928.1;;;;-77
2022/08/24 10:41:50;;;;;;;;;;;;;;;37.36;35.86621;101922;;;;-76
2022/08/24 10:44:24;;;;;;;1.5;0.7;;;;;;;;;;;;;-76
2022/08/24 10:46:52;;;;;;;;;;;;;;;37.51;35.90234;101924.4;;;;-75
2022/08/24 10:51:38;;;;;;;;;;;;;;;37.77;36.21973;101915.1;;;;-77
2022/08/24 10:56:39;;;;;;;;;;;;;;;38;36.48828;101913.8;;;;-75
2022/08/24 11:01:35;;;;;;;;;;;;;;;38.16;36.62012;101911.5;;;;-77
2022/08/24 11:06:34;;;;;;;;;;;;;;;38.39;36.62598;101903.5;;;;-76
2022/08/24 11:11:38;;;;;;;;;;;;;;;38.6;36.03516;101908.4;;;;-75
2022/08/24 11:14:25;;;;;;;1.6;0.7;;;;;;;;;;;;;-78
2022/08/24 11:16:34;;;;;;;;;;;;;;;38.74;34.98242;101903.2;;;;-76
2022/08/24 11:21:46;;;;;;;;;;;;;;;38.83;35.69434;101908.7;;;;-77
2022/08/24 11:26:31;;;;;;;;;;;;;;;38.94;35.53516;101911.5;;;;-76
2022/08/24 11:31:35;;;;;;;;;;;;;;;38.75;34.84082;101911.7;;;;-76
2022/08/24 11:36:35;;;;;;;;;;;;;;;38.35;36.08594;101909.3;;;;-76
2022/08/24 11:41:45;;;;;;;;;;;;;;;38.05;36.42188;101908.8;;;;-76
2022/08/24 11:44:27;;;;;;;1.4;0.5;;;;;;;;;;;;;-75
2022/08/24 11:46:35;;;;;;;;;;;;;;;37.88;36.75293;101908.5;;;;-75
2022/08/24 11:51:38;;;;;;;;;;;;;;;37.93;36.48242;101900.9;;;;-76
2022/08/24 11:56:34;;;;;;;;;;;;;;;38.15;35.82031;101896.9;;;;-76
2022/08/24 12:01:38;;;;;;;;;;;;;;;38.47;35.00879;101896.5;;;;-76
2022/08/24 12:06:39;;;;;;;;;;;;;;;38.76;34.43457;101900;;;;-78
2022/08/24 12:09:49;;;;;;;;;;;;;;;39.17;33.72363;101895.3;;;;-74
2022/08/24 12:14:26;;;;;;;;;;;;;;;39.15;33.74609;101899.9;;;;-76
2022/08/24 12:14:59;;;;;;;2.2;0.6;;;;;;;;;;;;;-76
2022/08/24 12:19:22;;;;;;;;;;;;;;;39.25;33.77734;101903.5;;;;-76
2022/08/24 12:24:28;;;;;;;;;;;;;;;39.32;33.54297;101903.3;;;;-76
2022/08/24 12:29:27;;;;;;;;;;;;;;;39.22;34.18164;101905;;;;-75
2022/08/24 12:34:29;;;;;;;;;;;;;;;38.89;33.75098;101910.8;;;;-76
2022/08/24 12:39:22;;;;;;;;;;;;;;;38.58;34.4209;101910.1;;;;-76
2022/08/24 12:44:23;;;;;;;;;;;;;;;38.33;35.07129;101914.8;;;;-75
2022/08/24 12:44:43;;;;;;;2.5;0.9;;;;;;;;;;;;;-75
2022/08/24 12:49:23;;;;;;;;;;;;;;;38.07;35.03906;101914.8;;;;-76
2022/08/24 12:54:29;;;;;;;;;;;;;;;37.91;34.89648;101912.5;;;;-76
2022/08/24 12:59:25;;;;;;;;;;;;;;;37.8;35.35254;101915.8;;;;-76
2022/08/24 13:04:37;;;;;;;;;;;;;;;37.76;35.69531;101913.9;;;;-75
2022/08/24 13:09:31;;;;;;;;;;;;;;;37.8;35.94824;101911.8;;;;-76
2022/08/24 13:14:31;;;;;;;;;;;;;;;37.97;36.0332;101912.3;;;;-76
2022/08/24 13:14:48;;;;;;;1.5;0.9;;;;;;;;;;;;;-76
2022/08/24 13:19:33;;;;;;;;;;;;;;;38.24;35.82813;101913.9;;;;-77
2022/08/24 13:24:34;;;;;;;;;;;;;;;38.51;35.47852;101910.8;;;;-76
2022/08/24 13:29:26;;;;;;;;;;;;;;;38.76;34.9248;101908.4;;;;-74
2022/08/24 13:34:34;;;;;;;;;;;;;;;38.82;34.42773;101910.6;;;;-76
2022/08/24 13:39:48;;;;;;;;;;;;;;;38.8;34.52148;101914.6;;;;-76
2022/08/24 13:44:33;;;;;;;;;;;;;;;38.78;35.02148;101915.8;;;;-76
2022/08/24 13:45:08;;;;;;;1.8;0.9;;;;;;;;;;;;;-76
2022/08/24 13:49:32;;;;;;;;;;;;;;;38.63;34.48438;101916.8;;;;-77
2022/08/24 13:54:28;;;;;;;;;;;;;;;38.31;34.6875;101922.6;;;;-75
2022/08/24 13:59:32;;;;;;;;;;;;;;;37.93;35.02832;101913.6;;;;-77
2022/08/24 14:04:35;;;;;;;;;;;;;;;37.52;35.52148;101916.8;;;;-77
2022/08/24 14:09:31;;;;;;;;;;;;;;;37.12;36.41895;101918;;;;-77
2022/08/24 14:14:28;;;;;;;;;;;;;;;36.71;36.89844;101914.1;;;;-76
2022/08/24 14:14:59;;;;;;;2.3;1;;;;;;;;;;;;;-75
2022/08/24 14:19:26;;;;;;;;;;;;;;;36.32;37.30566;101914.1;;;;-79
2022/08/24 14:24:26;;;;;;;;;;;;;;;35.97;37.64551;101918.3;;;;-76
2022/08/24 14:29:38;;;;;;;;;;;;;;;35.64;37.95117;101915.9;;;;-76
2022/08/24 14:34:33;;;;;;;;;;;;;;;35.33;38.29102;101913.6;;;;-78
2022/08/24 14:39:38;;;;;;;;;;;;;;;35.02;38.4668;101903.6;;;;-75
2022/08/24 14:44:30;;;;;;;;;;;;;;;34.75;38.74023;101899.4;;;;-75
2022/08/24 14:45:09;;;;;;;2.2;1;;;;;;;;;;;;;-76
2022/08/24 14:49:28;;;;;;;;;;;;;;;34.51;38.96777;101898;;;;-75
2022/08/24 14:54:30;;;;;;;;;;;;;;;34.29;39.22168;101900.7;;;;-76
2022/08/24 14:59:26;;;;;;;;;;;;;;;34.08;39.41602;101896.5;;;;-76
2022/08/24 15:04:34;;;;;;;;;;;;;;;33.89;39.60059;101892.8;;;;-75
2022/08/24 15:09:28;;;;;;;;;;;;;;;33.71;39.85645;101888.3;;;;-75
2022/08/24 15:14:34;;;;;;;;;;;;;;;33.54;40.12402;101888;;;;-76
2022/08/24 15:15:10;;;;;;;2.2;1.1;;;;;;;;;;;;;-76
2022/08/24 15:19:24;;;;;;;;;;;;;;;33.37;40.28613;101887.2;;;;-75
2022/08/24 15:24:34;;;;;;;;;;;;;;;33.21;40.57813;101882.2;;;;-75
2022/08/24 15:29:24;;;;;;;;;;;;;;;33.04;40.75195;101880.7;;;;-75
2022/08/24 15:34:20;;;;;;;;;;;;;;;32.86;40.9834;101879.9;;;;-76
2022/08/24 15:39:32;;;;;;;;;;;;;;;32.71;41.16992;101884.6;;;;-75
2022/08/24 15:44:28;;;;;;;;;;;;;;;32.54;41.2373;101882.4;;;;-75
2022/08/24 15:45:14;;;;;;;2.4;1;;;;;;;;;;;;;-74
2022/08/24 15:49:23;;;;;;;;;;;;;;;32.41;41.53027;101879.8;;;;-76
2022/08/24 15:54:32;;;;;;;;;;;;;;;32.29;41.51953;101885.4;;;;-75
2022/08/24 15:59:28;;;;;;;;;;;;;;;32.16;41.66113;101880.9;;;;-75
2022/08/24 16:04:30;;;;;;;;;;;;;;;32.05;41.47461;101882.6;;;;-76
2022/08/24 16:09:34;;;;;;;;;;;;;;;31.94;41.13574;101884.6;;;;-76
2022/08/24 16:14:31;;;;;;;;;;;;;;;31.84;41.09082;101889.4;;;;-74
2022/08/24 16:15:20;;;;;;;3.3;1.2;;;;;;;;;;;;;-75
2022/08/24 16:19:30;;;;;;;;;;;;;;;31.74;41.25781;101893.4;;;;-74
2022/08/24 16:24:29;;;;;;;;;;;;;;;31.63;41.72949;101892.7;;;;-76
2022/08/24 16:29:31;;;;;;;;;;;;;;;31.49;41.68164;101888.1;;;;-74
2022/08/24 16:34:25;;;;;;;;;;;;;;;31.36;41.83398;101883.5;;;;-75
2022/08/24 16:39:21;;;;;;;;;;;;;;;31.24;41.94043;101878.7;;;;-73
2022/08/24 16:44:20;;;;;;;;;;;;;;;31.15;42.47168;101876.4;;;;-75
2022/08/24 16:45:23;;;;;;;4.3;1.5;;;;;;;;;;;;;-77
2022/08/24 16:49:20;;;;;;;;;;;;;;;31.07;42.01953;101879.3;;;;-75
2022/08/24 16:54:20;;;;;;;;;;;;;;;31.01;42.31738;101877.4;;;;-75
2022/08/24 16:59:22;;;;;;;;;;;;;;;30.94;42.32324;101882;;;;-76
2022/08/24 17:04:20;;;;;;;;;;;;;;;30.91;42.36719;101877.5;;;;-74
2022/08/24 17:09:20;;;;;;;;;;;;;;;30.93;42.56836;101878.9;;;;-75
2022/08/24 17:14:20;;;;;;;;;;;;;;;30.92;42.80176;101880.9;;;;-76
2022/08/24 17:15:26;;;;;;;4.3;1.7;;;;;;;;;;;;;-74
2022/08/24 17:19:21;;;;;;;;;;;;;;;30.9;43.00977;101876.4;;;;-75
2022/08/24 17:24:22;;;;;;;;;;;;;;;30.89;42.98535;101878.8;;;;-74
2022/08/24 17:29:21;;;;;;;;;;;;;;;30.82;43.03809;101879.7;;;;-74
2022/08/24 17:34:21;;;;;;;;;;;;;;;30.7;43.27344;101877;;;;-75
2022/08/24 17:39:22;;;;;;;;;;;;;;;30.53;43.57227;101881.5;;;;-76
2022/08/24 17:44:23;;;;;;;;;;;;;;;30.38;43.52344;101884;;;;-76
2022/08/24 17:45:31;;;;;;;3.3;1.8;;;;;;;;;;;;;-76
2022/08/24 17:49:22;;;;;;;;;;;;;;;30.21;43.82324;101885;;;;-75
2022/08/24 17:54:20;;;;;;;;;;;;;;;30.06;43.83105;101885.8;;;;-75
2022/08/24 17:59:25;;;;;;;;;;;;;;;29.89;44.03613;101881.6;;;;-75
2022/08/24 18:04:21;;;;;;;;;;;;;;;29.7;44.20605;101885.2;;;;-74
2022/08/24 18:09:23;;;;;;;;;;;;;;;29.49;44.39551;101891.5;;;;-75
2022/08/24 18:14:23;;;;;;;;;;;;;;;29.26;44.65332;101888.4;;;;-75
2022/08/24 18:15:37;;;;;;;3.1;1.7;;;;;;;;;;;;;-74
2022/08/24 18:19:20;;;;;;;;;;;;;;;29.03;44.97949;101885.8;;;;-78
2022/08/24 18:24:20;;;;;;;;;;;;;;;28.79;45.14258;101892.2;;;;-74
2022/08/24 18:29:21;;;;;;;;;;;;;;;28.56;45.30566;101891.2;;;;-75
2022/08/24 18:34:21;;;;;;;;;;;;;;;28.33;45.78223;101902.1;;;;-76
2022/08/24 18:39:23;;;;;;;;;;;;;;;28.11;46.04004;101905.9;;;;-75
2022/08/24 18:44:21;;;;;;;;;;;;;;;27.89;46.86621;101908;;;;-75
2022/08/24 18:45:41;;;;;;;2.6;1.7;;;;;;;;;;;;;-75
2022/08/24 18:49:21;;;;;;;;;;;;;;;27.67;47.29688;101910.7;;;;-76
2022/08/24 18:54:22;;;;;;;;;;;;;;;27.45;47.44727;101909.8;;;;-74
2022/08/24 18:59:21;;;;;;;;;;;;;;;27.24;48.28418;101916.9;;;;-74
2022/08/24 19:04:20;;;;;;;;;;;;;;;27.04;48.66895;101918;;;;-74
2022/08/24 19:09:21;;;;;;;;;;;;;;;26.85;48.88086;101917.8;;;;-75
2022/08/24 19:14:20;;;;;;;;;;;;;;;26.65;49.19531;101916.4;;;;-74
2022/08/24 19:15:46;;;;;;;2.9;1.4;;;;;;;;;;;;;-75
2022/08/24 19:19:21;;;;;;;;;;;;;;;26.49;49.47852;101925.5;;;;-76
2022/08/24 19:24:21;;;;;;;;;;;;;;;26.32;49.94629;101925.6;;;;-75
2022/08/24 19:29:20;;;;;;;;;;;;;;;26.15;50.36621;101928.6;;;;-75
2022/08/24 19:34:20;;;;;;;;;;;;;;;26;50.65039;101930.4;;;;-75
2022/08/24 19:39:21;;;;;;;;;;;;;;;25.86;50.71484;101927.9;;;;-77
2022/08/24 19:49:20;;;;;;;;;;;;;;;25.6;51.33398;101919.6;;;;-75
2022/08/24 19:54:21;;;;;;;;;;;;;;;25.49;51.54102;101922.4;;;;-74
2022/08/24 19:59:30;;;;;;;;;;;;;;;25.4;51.7373;101923.1;;;;-74
2022/08/24 20:04:20;;;;;;;;;;;;;;;25.3;51.98047;101918.5;;;;-75
2022/08/24 20:09:20;;;;;;;;;;;;;;;25.22;52.25879;101925.2;;;;-77
2022/08/24 20:14:21;;;;;;;;;;;;;;;25.13;52.36426;101921.9;;;;-76
2022/08/24 20:15:54;;;;;;;2.7;2.1;;;;;;;;;;;;;-75
2022/08/24 20:19:21;;;;;;;;;;;;;;;25.04;52.65332;101918.5;;;;-76
2022/08/24 20:24:20;;;;;;;;;;;;;;;24.97;52.7959;101918.3;;;;-75
2022/08/24 20:29:21;;;;;;;;;;;;;;;24.9;53.04102;101917;;;;-75
2022/08/24 20:34:20;;;;;;;;;;;;;;;24.84;53.18164;101924.3;;;;-76
2022/08/24 20:39:23;;;;;;;;;;;;;;;24.76;53.69141;101923.7;;;;-76
2022/08/24 20:44:21;;;;;;;;;;;;;;;24.66;54.50879;101922;;;;-76
2022/08/24 20:45:58;;;;;;;4.7;3;;;;;;;;;;;;;-74
2022/08/24 20:49:21;;;;;;;;;;;;;;;24.59;54.52344;101919.5;;;;-77
2022/08/24 20:54:21;;;;;;;;;;;;;;;24.52;54.68652;101919.2;;;;-76
2022/08/24 20:59:20;;;;;;;;;;;;;;;24.46;54.95605;101920;;;;-75
2022/08/24 21:04:20;;;;;;;;;;;;;;;24.39;55.02832;101921.4;;;;-75
2022/08/24 21:09:20;;;;;;;;;;;;;;;24.32;55.13379;101919.9;;;;-77
2022/08/24 21:14:20;;;;;;;;;;;;;;;24.26;55.23047;101918.1;;;;-76
2022/08/24 21:16:01;;;;;;;8.5;4.1;;;;;;;;;;;;;-75
2022/08/24 21:19:20;;;;;;;;;;;;;;;24.21;55.64941;101918.9;;;;-76
2022/08/24 21:24:20;;;;;;;;;;;;;;;24.13;55.64063;101917.3;;;;-76
2022/08/24 21:29:20;;;;;;;;;;;;;;;24.06;55.90723;101917.3;;;;-75
2022/08/24 21:39:20;;;;;;;;;;;;;;;23.94;56.4209;101905.3;;;;-74
2022/08/24 21:44:20;;;;;;;;;;;;;;;23.88;56.45996;101902.9;;;;-75
2022/08/24 21:46:05;;;;;;;10.5;6.5;;;;;;;;;;;;;-75
2022/08/24 21:49:20;;;;;;;;;;;;;;;23.84;56.9834;101903.3;;;;-74
2022/08/24 21:54:20;;;;;;;;;;;;;;;23.78;56.69922;101899;;;;-75
2022/08/24 21:59:20;;;;;;;;;;;;;;;23.7;56.66699;101898.8;;;;-75
2022/08/24 22:04:20;;;;;;;;;;;;;;;23.64;56.63574;101898.6;;;;-76
2022/08/24 22:09:21;;;;;;;;;;;;;;;23.56;56.67188;101896.6;;;;-76
2022/08/24 22:14:20;;;;;;;;;;;;;;;23.51;56.60742;101893.1;;;;-74
2022/08/24 22:16:09;;;;;;;7.8;5.5;;;;;;;;;;;;;-75
2022/08/24 22:19:20;;;;;;;;;;;;;;;23.43;56.63379;101885.7;;;;-75
2022/08/24 22:24:20;;;;;;;;;;;;;;;23.35;56.54199;101882.2;;;;-76
2022/08/24 22:29:21;;;;;;;;;;;;;;;23.3;56.65039;101884.6;;;;-75
2022/08/24 22:34:20;;;;;;;;;;;;;;;23.24;56.63184;101880.9;;;;-75
2022/08/24 22:39:21;;;;;;;;;;;;;;;23.17;56.72559;101879.7;;;;-76
2022/08/24 22:44:24;;;;;;;;;;;;;;;23.12;56.8457;101875.3;;;;-75
2022/08/24 22:46:12;;;;;;;8.1;4.8;;;;;;;;;;;;;-76
2022/08/24 22:49:21;;;;;;;;;;;;;;;23.06;57.02148;101871.5;;;;-76
2022/08/24 22:54:21;;;;;;;;;;;;;;;23.01;56.84375;101865.5;;;;-75
2022/08/24 22:59:21;;;;;;;;;;;;;;;22.97;57.02148;101866.9;;;;-75
2022/08/24 23:04:22;;;;;;;;;;;;;;;22.92;57.03711;101861.6;;;;-75
2022/08/24 23:09:21;;;;;;;;;;;;;;;22.9;57.16113;101867;;;;-74
2022/08/24 23:14:21;;;;;;;;;;;;;;;22.86;57.32813;101863.7;;;;-75
2022/08/24 23:16:16;;;;;;;8.2;4.7;;;;;;;;;;;;;-75
2022/08/24 23:24:20;;;;;;;;;;;;;;;22.79;57.14746;101863;;;;-79
2022/08/24 23:29:28;;;;;;;;;;;;;;;22.75;56.9707;101859.7;;;;-77
2022/08/24 23:34:21;;;;;;;;;;;;;;;22.72;56.97754;101850.7;;;;-75
2022/08/24 23:39:20;;;;;;;;;;;;;;;22.67;56.8916;101844.3;;;;-75
2022/08/24 23:44:22;;;;;;;;;;;;;;;22.64;56.95703;101843.6;;;;-76
2022/08/24 23:46:20;;;;;;;8;4.4;;;;;;;;;;;;;-74
2022/08/24 23:49:21;;;;;;;;;;;;;;;22.61;56.84863;101840;;;;-75
2022/08/24 23:54:20;;;;;;;;;;;;;;;22.55;57.09473;101842.7;;;;-77
2022/08/24 23:59:21;;;;;;;;;;;;;;;22.52;57.00879;101834;;;;-77
